sensor_id;sensor_type;location;lat;lon;timestamp;temperature;humidity
79711;DHT22;69465;51.630;6.570;2023-04-24T00:01:03;10.90;58.30
79711;DHT22;69465;51.630;6.570;2023-04-24T00:03:29;10.90;58.10
79711;DHT22;69465;51.630;6.570;2023-04-24T00:05:56;11.00;58.20
79711;DHT22;69465;51.630;6.570;2023-04-24T00:08:23;11.00;57.20
79711;DHT22;69465;51.630;6.570;2023-04-24T00:10:49;11.00;57.60
79711;DHT22;69465;51.630;6.570;2023-04-24T00:13:16;11.00;56.30
79711;DHT22;69465;51.630;6.570;2023-04-24T00:15:43;11.00;57.30
79711;DHT22;69465;51.630;6.570;2023-04-24T00:18:09;11.00;57.00
79711;DHT22;69465;51.630;6.570;2023-04-24T00:20:36;11.00;57.30
79711;DHT22;69465;51.630;6.570;2023-04-24T00:23:03;11.00;57.30
79711;DHT22;69465;51.630;6.570;2023-04-24T00:25:30;11.00;57.00
79711;DHT22;69465;51.630;6.570;2023-04-24T00:27:56;11.00;56.50
79711;DHT22;69465;51.630;6.570;2023-04-24T00:30:23;11.00;56.40
79711;DHT22;69465;51.630;6.570;2023-04-24T00:32:49;10.90;56.50
79711;DHT22;69465;51.630;6.570;2023-04-24T00:35:16;10.90;56.90
79711;DHT22;69465;51.630;6.570;2023-04-24T00:37:43;10.90;56.70
79711;DHT22;69465;51.630;6.570;2023-04-24T00:40:10;10.90;56.60
79711;DHT22;69465;51.630;6.570;2023-04-24T00:42:37;10.90;56.40
79711;DHT22;69465;51.630;6.570;2023-04-24T00:45:05;10.90;56.40
79711;DHT22;69465;51.630;6.570;2023-04-24T00:47:36;10.80;56.50
79711;DHT22;69465;51.630;6.570;2023-04-24T00:50:03;10.80;56.40
79711;DHT22;69465;51.630;6.570;2023-04-24T00:52:30;10.80;56.90
79711;DHT22;69465;51.630;6.570;2023-04-24T00:54:57;10.90;57.00
79711;DHT22;69465;51.630;6.570;2023-04-24T00:57:24;10.90;56.50
79711;DHT22;69465;51.630;6.570;2023-04-24T00:59:52;10.90;56.60
79711;DHT22;69465;51.630;6.570;2023-04-24T01:02:19;10.90;56.10
79711;DHT22;69465;51.630;6.570;2023-04-24T01:04:49;10.90;56.40
79711;DHT22;69465;51.630;6.570;2023-04-24T01:07:21;10.90;56.00
79711;DHT22;69465;51.630;6.570;2023-04-24T01:09:48;10.90;55.20
79711;DHT22;69465;51.630;6.570;2023-04-24T01:12:15;10.90;54.90
79711;DHT22;69465;51.630;6.570;2023-04-24T01:14:42;10.90;55.60
79711;DHT22;69465;51.630;6.570;2023-04-24T01:17:09;10.80;55.10
79711;DHT22;69465;51.630;6.570;2023-04-24T01:19:35;10.80;55.10
79711;DHT22;69465;51.630;6.570;2023-04-24T01:22:03;10.70;55.80
79711;DHT22;69465;51.630;6.570;2023-04-24T01:24:30;10.70;55.00
79711;DHT22;69465;51.630;6.570;2023-04-24T01:26:57;10.60;55.50
79711;DHT22;69465;51.630;6.570;2023-04-24T01:29:24;10.60;56.10
79711;DHT22;69465;51.630;6.570;2023-04-24T01:31:50;10.60;55.60
79711;DHT22;69465;51.630;6.570;2023-04-24T01:34:17;10.60;55.40
79711;DHT22;69465;51.630;6.570;2023-04-24T01:36:45;10.60;56.30
79711;DHT22;69465;51.630;6.570;2023-04-24T01:39:13;10.60;55.90
79711;DHT22;69465;51.630;6.570;2023-04-24T01:41:39;10.50;55.00
79711;DHT22;69465;51.630;6.570;2023-04-24T01:44:06;10.50;55.60
79711;DHT22;69465;51.630;6.570;2023-04-24T01:46:33;10.50;55.40
79711;DHT22;69465;51.630;6.570;2023-04-24T01:49:01;10.50;55.40
79711;DHT22;69465;51.630;6.570;2023-04-24T01:51:28;10.50;55.50
79711;DHT22;69465;51.630;6.570;2023-04-24T01:53:54;10.40;55.30
79711;DHT22;69465;51.630;6.570;2023-04-24T01:56:22;10.40;56.00
79711;DHT22;69465;51.630;6.570;2023-04-24T01:58:50;10.40;55.00
79711;DHT22;69465;51.630;6.570;2023-04-24T02:01:19;10.40;56.00
79711;DHT22;69465;51.630;6.570;2023-04-24T02:03:46;10.40;55.70
79711;DHT22;69465;51.630;6.570;2023-04-24T02:06:13;10.40;56.10
79711;DHT22;69465;51.630;6.570;2023-04-24T02:08:40;10.40;55.80
79711;DHT22;69465;51.630;6.570;2023-04-24T02:11:09;10.40;55.90
79711;DHT22;69465;51.630;6.570;2023-04-24T02:13:36;10.40;57.60
79711;DHT22;69465;51.630;6.570;2023-04-24T02:16:02;10.40;58.20
79711;DHT22;69465;51.630;6.570;2023-04-24T02:18:29;10.20;59.10
79711;DHT22;69465;51.630;6.570;2023-04-24T02:20:55;10.10;59.00
79711;DHT22;69465;51.630;6.570;2023-04-24T02:23:22;10.10;59.00
79711;DHT22;69465;51.630;6.570;2023-04-24T02:25:49;10.00;58.90
79711;DHT22;69465;51.630;6.570;2023-04-24T02:28:15;10.00;59.30
79711;DHT22;69465;51.630;6.570;2023-04-24T02:30:42;10.00;58.90
79711;DHT22;69465;51.630;6.570;2023-04-24T02:33:09;10.00;59.40
79711;DHT22;69465;51.630;6.570;2023-04-24T02:35:36;10.00;59.60
79711;DHT22;69465;51.630;6.570;2023-04-24T02:38:03;10.00;58.90
79711;DHT22;69465;51.630;6.570;2023-04-24T02:40:30;10.00;59.60
79711;DHT22;69465;51.630;6.570;2023-04-24T02:42:56;10.00;58.90
79711;DHT22;69465;51.630;6.570;2023-04-24T02:45:23;10.10;59.00
79711;DHT22;69465;51.630;6.570;2023-04-24T02:47:50;10.10;59.00
79711;DHT22;69465;51.630;6.570;2023-04-24T02:50:16;10.10;59.00
79711;DHT22;69465;51.630;6.570;2023-04-24T02:52:43;10.10;58.80
79711;DHT22;69465;51.630;6.570;2023-04-24T02:55:10;10.10;59.00
79711;DHT22;69465;51.630;6.570;2023-04-24T02:57:36;10.20;58.50
79711;DHT22;69465;51.630;6.570;2023-04-24T03:00:04;10.20;59.10
79711;DHT22;69465;51.630;6.570;2023-04-24T03:02:30;10.20;58.60
79711;DHT22;69465;51.630;6.570;2023-04-24T03:04:57;10.20;58.50
79711;DHT22;69465;51.630;6.570;2023-04-24T03:07:24;10.20;58.40
79711;DHT22;69465;51.630;6.570;2023-04-24T03:09:51;10.20;58.40
79711;DHT22;69465;51.630;6.570;2023-04-24T03:12:17;10.20;58.20
79711;DHT22;69465;51.630;6.570;2023-04-24T03:14:44;10.20;59.70
79711;DHT22;69465;51.630;6.570;2023-04-24T03:17:11;10.20;58.20
79711;DHT22;69465;51.630;6.570;2023-04-24T03:19:38;10.20;58.20
79711;DHT22;69465;51.630;6.570;2023-04-24T03:22:04;10.30;59.10
79711;DHT22;69465;51.630;6.570;2023-04-24T03:24:31;10.30;58.20
79711;DHT22;69465;51.630;6.570;2023-04-24T03:26:57;10.20;57.60
79711;DHT22;69465;51.630;6.570;2023-04-24T03:29:24;10.20;58.80
79711;DHT22;69465;51.630;6.570;2023-04-24T03:31:51;10.20;58.10
79711;DHT22;69465;51.630;6.570;2023-04-24T03:34:18;10.20;57.80
79711;DHT22;69465;51.630;6.570;2023-04-24T03:36:44;10.20;57.90
79711;DHT22;69465;51.630;6.570;2023-04-24T03:39:11;10.30;58.30
79711;DHT22;69465;51.630;6.570;2023-04-24T03:41:38;10.30;57.90
79711;DHT22;69465;51.630;6.570;2023-04-24T03:44:04;10.30;57.90
79711;DHT22;69465;51.630;6.570;2023-04-24T03:46:31;10.30;57.00
79711;DHT22;69465;51.630;6.570;2023-04-24T03:48:57;10.30;57.40
79711;DHT22;69465;51.630;6.570;2023-04-24T03:51:24;10.30;57.50
79711;DHT22;69465;51.630;6.570;2023-04-24T03:53:50;10.20;57.50
79711;DHT22;69465;51.630;6.570;2023-04-24T03:56:17;10.30;57.40
79711;DHT22;69465;51.630;6.570;2023-04-24T03:58:44;10.30;56.70
79711;DHT22;69465;51.630;6.570;2023-04-24T04:01:10;10.30;57.00
79711;DHT22;69465;51.630;6.570;2023-04-24T04:03:37;10.30;56.50
79711;DHT22;69465;51.630;6.570;2023-04-24T04:06:04;10.20;56.50
79711;DHT22;69465;51.630;6.570;2023-04-24T04:08:31;10.30;57.00
79711;DHT22;69465;51.630;6.570;2023-04-24T04:10:58;10.30;56.70
79711;DHT22;69465;51.630;6.570;2023-04-24T04:13:25;10.20;56.30
79711;DHT22;69465;51.630;6.570;2023-04-24T04:15:51;10.30;56.60
79711;DHT22;69465;51.630;6.570;2023-04-24T04:18:18;10.20;56.20
79711;DHT22;69465;51.630;6.570;2023-04-24T04:20:44;10.20;56.00
79711;DHT22;69465;51.630;6.570;2023-04-24T04:23:11;10.20;56.80
79711;DHT22;69465;51.630;6.570;2023-04-24T04:25:38;10.20;56.20
79711;DHT22;69465;51.630;6.570;2023-04-24T04:28:05;10.20;56.20
79711;DHT22;69465;51.630;6.570;2023-04-24T04:30:31;10.30;56.60
79711;DHT22;69465;51.630;6.570;2023-04-24T04:32:59;10.30;56.50
79711;DHT22;69465;51.630;6.570;2023-04-24T04:35:26;10.30;56.30
79711;DHT22;69465;51.630;6.570;2023-04-24T04:37:52;10.30;56.00
79711;DHT22;69465;51.630;6.570;2023-04-24T04:40:19;10.30;56.70
79711;DHT22;69465;51.630;6.570;2023-04-24T04:42:46;10.30;56.10
79711;DHT22;69465;51.630;6.570;2023-04-24T04:45:13;10.30;56.00
79711;DHT22;69465;51.630;6.570;2023-04-24T04:47:39;10.30;56.20
79711;DHT22;69465;51.630;6.570;2023-04-24T04:50:06;10.30;56.30
79711;DHT22;69465;51.630;6.570;2023-04-24T04:52:33;10.30;57.20
79711;DHT22;69465;51.630;6.570;2023-04-24T04:55:00;10.30;57.80
79711;DHT22;69465;51.630;6.570;2023-04-24T04:57:26;10.20;58.50
79711;DHT22;69465;51.630;6.570;2023-04-24T04:59:53;10.10;58.20
79711;DHT22;69465;51.630;6.570;2023-04-24T05:02:20;10.10;58.30
79711;DHT22;69465;51.630;6.570;2023-04-24T05:04:46;10.00;58.90
79711;DHT22;69465;51.630;6.570;2023-04-24T05:07:14;10.00;58.80
79711;DHT22;69465;51.630;6.570;2023-04-24T05:09:40;9.90;59.80
79711;DHT22;69465;51.630;6.570;2023-04-24T05:12:07;9.90;59.80
79711;DHT22;69465;51.630;6.570;2023-04-24T05:14:34;9.90;59.90
79711;DHT22;69465;51.630;6.570;2023-04-24T05:17:01;9.90;59.80
79711;DHT22;69465;51.630;6.570;2023-04-24T05:19:27;9.80;59.70
79711;DHT22;69465;51.630;6.570;2023-04-24T05:21:54;9.80;59.70
79711;DHT22;69465;51.630;6.570;2023-04-24T05:24:20;9.80;59.70
79711;DHT22;69465;51.630;6.570;2023-04-24T05:26:47;9.80;59.70
79711;DHT22;69465;51.630;6.570;2023-04-24T05:29:14;9.80;59.70
79711;DHT22;69465;51.630;6.570;2023-04-24T05:31:41;9.80;59.70
79711;DHT22;69465;51.630;6.570;2023-04-24T05:34:07;9.80;59.70
79711;DHT22;69465;51.630;6.570;2023-04-24T05:36:34;9.80;59.70
79711;DHT22;69465;51.630;6.570;2023-04-24T05:39:01;9.80;59.00
79711;DHT22;69465;51.630;6.570;2023-04-24T05:41:28;9.90;58.90
79711;DHT22;69465;51.630;6.570;2023-04-24T05:43:54;9.90;59.80
79711;DHT22;69465;51.630;6.570;2023-04-24T05:46:21;10.00;58.90
79711;DHT22;69465;51.630;6.570;2023-04-24T05:48:48;10.00;58.00
79711;DHT22;69465;51.630;6.570;2023-04-24T05:51:14;10.00;58.30
79711;DHT22;69465;51.630;6.570;2023-04-24T05:53:41;10.00;58.40
79711;DHT22;69465;51.630;6.570;2023-04-24T05:56:07;10.00;58.40
79711;DHT22;69465;51.630;6.570;2023-04-24T05:58:34;9.90;59.70
79711;DHT22;69465;51.630;6.570;2023-04-24T06:01:01;9.90;58.90
79711;DHT22;69465;51.630;6.570;2023-04-24T06:03:28;10.00;58.90
79711;DHT22;69465;51.630;6.570;2023-04-24T06:05:55;10.00;59.00
79711;DHT22;69465;51.630;6.570;2023-04-24T06:08:21;10.00;58.90
79711;DHT22;69465;51.630;6.570;2023-04-24T06:10:48;10.00;58.90
79711;DHT22;69465;51.630;6.570;2023-04-24T06:13:15;10.00;59.20
79711;DHT22;69465;51.630;6.570;2023-04-24T06:15:43;10.00;60.10
79711;DHT22;69465;51.630;6.570;2023-04-24T06:18:09;9.90;59.90
79711;DHT22;69465;51.630;6.570;2023-04-24T06:20:36;9.90;59.80
79711;DHT22;69465;51.630;6.570;2023-04-24T06:23:03;9.90;60.40
79711;DHT22;69465;51.630;6.570;2023-04-24T06:25:30;9.90;61.20
79711;DHT22;69465;51.630;6.570;2023-04-24T06:27:58;9.90;60.50
79711;DHT22;69465;51.630;6.570;2023-04-24T06:30:24;9.80;61.00
79711;DHT22;69465;51.630;6.570;2023-04-24T06:32:51;9.80;61.20
79711;DHT22;69465;51.630;6.570;2023-04-24T06:35:18;9.80;61.60
79711;DHT22;69465;51.630;6.570;2023-04-24T06:37:45;9.80;61.30
79711;DHT22;69465;51.630;6.570;2023-04-24T06:40:11;9.70;61.70
79711;DHT22;69465;51.630;6.570;2023-04-24T06:42:38;9.70;62.00
79711;DHT22;69465;51.630;6.570;2023-04-24T06:45:05;9.70;61.50
79711;DHT22;69465;51.630;6.570;2023-04-24T06:47:32;9.70;61.90
79711;DHT22;69465;51.630;6.570;2023-04-24T06:49:59;9.70;62.10
79711;DHT22;69465;51.630;6.570;2023-04-24T06:52:25;9.70;62.30
79711;DHT22;69465;51.630;6.570;2023-04-24T06:54:52;9.70;62.30
79711;DHT22;69465;51.630;6.570;2023-04-24T06:57:25;9.70;62.70
79711;DHT22;69465;51.630;6.570;2023-04-24T06:59:52;9.80;62.70
79711;DHT22;69465;51.630;6.570;2023-04-24T07:02:19;9.80;63.30
79711;DHT22;69465;51.630;6.570;2023-04-24T07:04:46;9.90;62.50
79711;DHT22;69465;51.630;6.570;2023-04-24T07:07:13;9.90;61.70
79711;DHT22;69465;51.630;6.570;2023-04-24T07:09:40;9.80;61.70
79711;DHT22;69465;51.630;6.570;2023-04-24T07:12:07;9.80;62.00
79711;DHT22;69465;51.630;6.570;2023-04-24T07:14:34;9.90;62.30
79711;DHT22;69465;51.630;6.570;2023-04-24T07:17:02;9.90;62.40
79711;DHT22;69465;51.630;6.570;2023-04-24T07:19:29;9.90;63.00
79711;DHT22;69465;51.630;6.570;2023-04-24T07:21:56;10.10;62.10
79711;DHT22;69465;51.630;6.570;2023-04-24T07:24:23;10.10;61.00
79711;DHT22;69465;51.630;6.570;2023-04-24T07:26:53;10.30;61.40
79711;DHT22;69465;51.630;6.570;2023-04-24T07:29:20;10.20;60.60
79711;DHT22;69465;51.630;6.570;2023-04-24T07:31:47;10.20;60.60
79711;DHT22;69465;51.630;6.570;2023-04-24T07:34:14;10.20;60.90
79711;DHT22;69465;51.630;6.570;2023-04-24T07:36:41;10.20;60.00
79711;DHT22;69465;51.630;6.570;2023-04-24T07:39:08;10.20;59.80
79711;DHT22;69465;51.630;6.570;2023-04-24T07:41:34;10.20;60.20
79711;DHT22;69465;51.630;6.570;2023-04-24T07:44:01;10.10;59.50
79711;DHT22;69465;51.630;6.570;2023-04-24T07:46:30;10.10;60.40
79711;DHT22;69465;51.630;6.570;2023-04-24T07:48:57;10.00;59.70
79711;DHT22;69465;51.630;6.570;2023-04-24T07:51:38;10.00;60.50
79711;DHT22;69465;51.630;6.570;2023-04-24T07:54:05;10.00;59.80
79711;DHT22;69465;51.630;6.570;2023-04-24T07:56:32;10.00;60.50
79711;DHT22;69465;51.630;6.570;2023-04-24T07:58:59;10.00;60.30
79711;DHT22;69465;51.630;6.570;2023-04-24T08:01:26;10.00;60.50
79711;DHT22;69465;51.630;6.570;2023-04-24T08:03:53;10.00;60.70
79711;DHT22;69465;51.630;6.570;2023-04-24T08:06:20;10.00;60.90
79711;DHT22;69465;51.630;6.570;2023-04-24T08:08:47;10.00;61.30
79711;DHT22;69465;51.630;6.570;2023-04-24T08:11:14;10.00;61.10
79711;DHT22;69465;51.630;6.570;2023-04-24T08:13:40;10.00;60.90
79711;DHT22;69465;51.630;6.570;2023-04-24T08:16:07;10.00;60.90
79711;DHT22;69465;51.630;6.570;2023-04-24T08:18:34;10.00;61.40
79711;DHT22;69465;51.630;6.570;2023-04-24T08:21:01;10.00;61.80
79711;DHT22;69465;51.630;6.570;2023-04-24T08:23:27;10.10;62.30
79711;DHT22;69465;51.630;6.570;2023-04-24T08:25:54;10.20;62.00
79711;DHT22;69465;51.630;6.570;2023-04-24T08:28:21;10.20;61.60
79711;DHT22;69465;51.630;6.570;2023-04-24T08:30:48;10.30;62.10
79711;DHT22;69465;51.630;6.570;2023-04-24T08:33:15;10.40;61.30
79711;DHT22;69465;51.630;6.570;2023-04-24T08:35:41;10.40;60.60
79711;DHT22;69465;51.630;6.570;2023-04-24T08:38:08;10.50;60.40
79711;DHT22;69465;51.630;6.570;2023-04-24T08:40:37;10.60;60.90
79711;DHT22;69465;51.630;6.570;2023-04-24T08:43:04;10.70;60.10
79711;DHT22;69465;51.630;6.570;2023-04-24T08:45:30;10.80;61.00
79711;DHT22;69465;51.630;6.570;2023-04-24T08:47:59;10.80;60.90
79711;DHT22;69465;51.630;6.570;2023-04-24T08:50:27;10.80;60.30
79711;DHT22;69465;51.630;6.570;2023-04-24T08:52:53;10.70;60.40
79711;DHT22;69465;51.630;6.570;2023-04-24T08:55:20;10.60;60.30
79711;DHT22;69465;51.630;6.570;2023-04-24T08:57:52;10.50;61.10
79711;DHT22;69465;51.630;6.570;2023-04-24T09:00:20;10.30;61.70
79711;DHT22;69465;51.630;6.570;2023-04-24T09:02:49;10.10;61.60
79711;DHT22;69465;51.630;6.570;2023-04-24T09:05:17;9.90;63.80
79711;DHT22;69465;51.630;6.570;2023-04-24T09:07:45;9.80;61.80
79711;DHT22;69465;51.630;6.570;2023-04-24T09:10:16;9.70;62.40
79711;DHT22;69465;51.630;6.570;2023-04-24T09:12:44;9.70;63.00
79711;DHT22;69465;51.630;6.570;2023-04-24T09:15:11;9.70;62.80
79711;DHT22;69465;51.630;6.570;2023-04-24T09:17:38;9.60;62.00
79711;DHT22;69465;51.630;6.570;2023-04-24T09:20:05;9.50;61.70
79711;DHT22;69465;51.630;6.570;2023-04-24T09:22:32;9.40;62.10
79711;DHT22;69465;51.630;6.570;2023-04-24T09:25:05;9.40;63.80
79711;DHT22;69465;51.630;6.570;2023-04-24T09:27:33;9.30;62.20
79711;DHT22;69465;51.630;6.570;2023-04-24T09:30:02;9.30;62.80
79711;DHT22;69465;51.630;6.570;2023-04-24T09:32:28;9.20;62.60
79711;DHT22;69465;51.630;6.570;2023-04-24T09:35:12;9.30;62.80
79711;DHT22;69465;51.630;6.570;2023-04-24T09:37:45;9.30;62.90
79711;DHT22;69465;51.630;6.570;2023-04-24T09:40:17;9.30;63.10
79711;DHT22;69465;51.630;6.570;2023-04-24T09:42:45;9.40;63.20
79711;DHT22;69465;51.630;6.570;2023-04-24T09:45:13;9.40;63.40
79711;DHT22;69465;51.630;6.570;2023-04-24T09:47:43;9.50;63.80
79711;DHT22;69465;51.630;6.570;2023-04-24T09:50:15;9.60;62.70
79711;DHT22;69465;51.630;6.570;2023-04-24T09:52:44;9.70;63.10
79711;DHT22;69465;51.630;6.570;2023-04-24T09:55:18;9.70;63.00
79711;DHT22;69465;51.630;6.570;2023-04-24T09:57:49;9.70;63.50
79711;DHT22;69465;51.630;6.570;2023-04-24T10:00:23;9.70;64.00
79711;DHT22;69465;51.630;6.570;2023-04-24T10:02:50;9.80;63.80
79711;DHT22;69465;51.630;6.570;2023-04-24T10:05:17;9.80;64.00
79711;DHT22;69465;51.630;6.570;2023-04-24T10:07:44;9.80;63.00
79711;DHT22;69465;51.630;6.570;2023-04-24T10:10:15;9.70;62.90
79711;DHT22;69465;51.630;6.570;2023-04-24T10:12:43;9.70;63.10
79711;DHT22;69465;51.630;6.570;2023-04-24T10:15:10;9.70;62.20
79711;DHT22;69465;51.630;6.570;2023-04-24T10:17:38;9.70;62.20
79711;DHT22;69465;51.630;6.570;2023-04-24T10:20:06;9.70;62.30
79711;DHT22;69465;51.630;6.570;2023-04-24T10:22:33;9.60;63.20
79711;DHT22;69465;51.630;6.570;2023-04-24T10:25:00;9.70;63.70
79711;DHT22;69465;51.630;6.570;2023-04-24T10:27:30;9.70;63.70
79711;DHT22;69465;51.630;6.570;2023-04-24T10:29:57;9.80;62.30
79711;DHT22;69465;51.630;6.570;2023-04-24T10:32:25;9.80;61.90
79711;DHT22;69465;51.630;6.570;2023-04-24T10:34:52;9.70;62.40
79711;DHT22;69465;51.630;6.570;2023-04-24T10:37:19;9.80;62.00
79711;DHT22;69465;51.630;6.570;2023-04-24T10:39:48;9.80;60.90
79711;DHT22;69465;51.630;6.570;2023-04-24T10:42:15;9.80;62.20
79711;DHT22;69465;51.630;6.570;2023-04-24T10:44:42;9.80;61.50
79711;DHT22;69465;51.630;6.570;2023-04-24T10:47:15;10.00;60.10
79711;DHT22;69465;51.630;6.570;2023-04-24T10:49:41;10.30;61.30
79711;DHT22;69465;51.630;6.570;2023-04-24T10:52:09;10.70;59.50
79711;DHT22;69465;51.630;6.570;2023-04-24T10:54:44;11.10;57.00
79711;DHT22;69465;51.630;6.570;2023-04-24T10:59:48;11.80;54.70
79711;DHT22;69465;51.630;6.570;2023-04-24T11:02:16;12.00;52.70
79711;DHT22;69465;51.630;6.570;2023-04-24T11:04:44;12.10;51.70
79711;DHT22;69465;51.630;6.570;2023-04-24T11:07:11;12.10;51.10
79711;DHT22;69465;51.630;6.570;2023-04-24T11:09:38;12.20;51.80
79711;DHT22;69465;51.630;6.570;2023-04-24T11:12:06;12.30;50.70
79711;DHT22;69465;51.630;6.570;2023-04-24T11:17:34;12.50;49.70
79711;DHT22;69465;51.630;6.570;2023-04-24T11:20:08;12.50;48.80
79711;DHT22;69465;51.630;6.570;2023-04-24T11:22:53;12.30;46.30
79711;DHT22;69465;51.630;6.570;2023-04-24T11:25:21;12.00;47.10
79711;DHT22;69465;51.630;6.570;2023-04-24T11:27:48;11.90;49.30
79711;DHT22;69465;51.630;6.570;2023-04-24T11:30:20;11.90;48.30
79711;DHT22;69465;51.630;6.570;2023-04-24T11:32:51;11.90;48.30
79711;DHT22;69465;51.630;6.570;2023-04-24T11:35:20;12.00;48.00
79711;DHT22;69465;51.630;6.570;2023-04-24T11:37:49;12.20;49.10
79711;DHT22;69465;51.630;6.570;2023-04-24T11:40:20;12.20;47.70
79711;DHT22;69465;51.630;6.570;2023-04-24T11:42:47;12.40;48.80
79711;DHT22;69465;51.630;6.570;2023-04-24T11:45:16;12.50;48.50
79711;DHT22;69465;51.630;6.570;2023-04-24T11:47:44;12.60;47.60
79711;DHT22;69465;51.630;6.570;2023-04-24T11:50:13;12.50;46.40
79711;DHT22;69465;51.630;6.570;2023-04-24T11:52:42;12.50;47.40
79711;DHT22;69465;51.630;6.570;2023-04-24T11:57:46;12.40;47.80
79711;DHT22;69465;51.630;6.570;2023-04-24T12:02:44;12.10;47.80
79711;DHT22;69465;51.630;6.570;2023-04-24T12:05:20;11.90;49.20
79711;DHT22;69465;51.630;6.570;2023-04-24T12:07:47;11.80;47.60
79711;DHT22;69465;51.630;6.570;2023-04-24T12:10:14;11.70;46.60
79711;DHT22;69465;51.630;6.570;2023-04-24T12:12:40;11.70;47.70
79711;DHT22;69465;51.630;6.570;2023-04-24T12:15:08;11.90;48.80
79711;DHT22;69465;51.630;6.570;2023-04-24T12:17:35;12.10;47.20
79711;DHT22;69465;51.630;6.570;2023-04-24T12:20:03;12.40;46.80
79711;DHT22;69465;51.630;6.570;2023-04-24T12:22:48;12.30;44.50
79711;DHT22;69465;51.630;6.570;2023-04-24T12:25:17;12.30;45.10
79711;DHT22;69465;51.630;6.570;2023-04-24T12:27:45;12.10;44.60
79711;DHT22;69465;51.630;6.570;2023-04-24T12:30:13;11.90;45.30
79711;DHT22;69465;51.630;6.570;2023-04-24T12:32:42;11.60;46.50
79711;DHT22;69465;51.630;6.570;2023-04-24T12:35:09;11.50;47.40
79711;DHT22;69465;51.630;6.570;2023-04-24T12:37:35;11.30;47.30
79711;DHT22;69465;51.630;6.570;2023-04-24T12:42:32;11.10;47.80
79711;DHT22;69465;51.630;6.570;2023-04-24T12:45:05;10.90;48.90
79711;DHT22;69465;51.630;6.570;2023-04-24T12:47:33;11.00;47.90
79711;DHT22;69465;51.630;6.570;2023-04-24T12:50:00;10.90;48.00
79711;DHT22;69465;51.630;6.570;2023-04-24T12:52:28;10.90;48.20
79711;DHT22;69465;51.630;6.570;2023-04-24T12:54:58;10.90;47.60
79711;DHT22;69465;51.630;6.570;2023-04-24T12:57:26;10.80;47.30
79711;DHT22;69465;51.630;6.570;2023-04-24T12:59:57;10.80;47.20
79711;DHT22;69465;51.630;6.570;2023-04-24T13:02:26;10.80;48.70
79711;DHT22;69465;51.630;6.570;2023-04-24T13:04:53;10.80;47.60
79711;DHT22;69465;51.630;6.570;2023-04-24T13:07:20;10.90;48.60
79711;DHT22;69465;51.630;6.570;2023-04-24T13:09:48;10.90;47.10
79711;DHT22;69465;51.630;6.570;2023-04-24T13:12:15;10.80;48.20
79711;DHT22;69465;51.630;6.570;2023-04-24T13:14:42;10.80;48.40
79711;DHT22;69465;51.630;6.570;2023-04-24T13:17:09;10.80;47.40
79711;DHT22;69465;51.630;6.570;2023-04-24T13:19:37;10.90;48.00
79711;DHT22;69465;51.630;6.570;2023-04-24T13:22:04;11.10;48.70
79711;DHT22;69465;51.630;6.570;2023-04-24T13:24:32;11.30;48.10
79711;DHT22;69465;51.630;6.570;2023-04-24T13:26:59;11.70;47.40
79711;DHT22;69465;51.630;6.570;2023-04-24T13:29:26;12.00;46.10
79711;DHT22;69465;51.630;6.570;2023-04-24T13:31:53;12.10;44.50
79711;DHT22;69465;51.630;6.570;2023-04-24T13:34:25;12.10;43.60
79711;DHT22;69465;51.630;6.570;2023-04-24T13:36:56;12.20;43.70
79711;DHT22;69465;51.630;6.570;2023-04-24T13:39:23;12.20;44.30
79711;DHT22;69465;51.630;6.570;2023-04-24T13:41:50;12.10;43.10
79711;DHT22;69465;51.630;6.570;2023-04-24T13:44:18;12.10;43.50
79711;DHT22;69465;51.630;6.570;2023-04-24T13:46:47;12.00;44.50
79711;DHT22;69465;51.630;6.570;2023-04-24T13:49:14;11.90;46.00
79711;DHT22;69465;51.630;6.570;2023-04-24T13:51:41;11.60;47.00
79711;DHT22;69465;51.630;6.570;2023-04-24T13:54:08;11.50;48.60
79711;DHT22;69465;51.630;6.570;2023-04-24T13:56:35;11.40;48.40
79711;DHT22;69465;51.630;6.570;2023-04-24T13:59:02;11.30;50.10
79711;DHT22;69465;51.630;6.570;2023-04-24T14:01:28;11.10;50.80
79711;DHT22;69465;51.630;6.570;2023-04-24T14:03:56;11.00;51.10
79711;DHT22;69465;51.630;6.570;2023-04-24T14:06:23;11.00;53.00
79711;DHT22;69465;51.630;6.570;2023-04-24T14:08:50;11.00;53.40
79711;DHT22;69465;51.630;6.570;2023-04-24T14:11:17;11.10;55.30
79711;DHT22;69465;51.630;6.570;2023-04-24T14:13:45;11.10;53.10
79711;DHT22;69465;51.630;6.570;2023-04-24T14:16:12;11.20;52.10
79711;DHT22;69465;51.630;6.570;2023-04-24T14:18:39;11.40;53.10
79711;DHT22;69465;51.630;6.570;2023-04-24T14:21:06;11.50;49.10
79711;DHT22;69465;51.630;6.570;2023-04-24T14:23:50;11.60;51.10
79711;DHT22;69465;51.630;6.570;2023-04-24T14:26:17;11.70;51.30
79711;DHT22;69465;51.630;6.570;2023-04-24T14:28:44;11.90;49.50
79711;DHT22;69465;51.630;6.570;2023-04-24T14:31:11;12.20;49.70
79711;DHT22;69465;51.630;6.570;2023-04-24T14:33:37;12.30;48.00
79711;DHT22;69465;51.630;6.570;2023-04-24T14:36:04;12.40;47.30
79711;DHT22;69465;51.630;6.570;2023-04-24T14:38:31;12.50;46.80
79711;DHT22;69465;51.630;6.570;2023-04-24T14:40:58;12.60;44.90
79711;DHT22;69465;51.630;6.570;2023-04-24T14:43:33;12.70;45.70
79711;DHT22;69465;51.630;6.570;2023-04-24T14:45:59;12.80;45.60
79711;DHT22;69465;51.630;6.570;2023-04-24T14:48:26;12.90;44.90
79711;DHT22;69465;51.630;6.570;2023-04-24T14:50:53;12.90;43.00
79711;DHT22;69465;51.630;6.570;2023-04-24T14:53:19;12.70;42.50
79711;DHT22;69465;51.630;6.570;2023-04-24T14:55:46;12.60;44.10
79711;DHT22;69465;51.630;6.570;2023-04-24T14:58:13;12.50;43.60
79711;DHT22;69465;51.630;6.570;2023-04-24T15:00:39;12.30;42.60
79711;DHT22;69465;51.630;6.570;2023-04-24T15:03:06;12.10;42.90
79711;DHT22;69465;51.630;6.570;2023-04-24T15:05:33;11.90;43.40
79711;DHT22;69465;51.630;6.570;2023-04-24T15:08:00;11.80;44.50
79711;DHT22;69465;51.630;6.570;2023-04-24T15:10:27;11.60;44.60
79711;DHT22;69465;51.630;6.570;2023-04-24T15:12:53;11.40;43.80
79711;DHT22;69465;51.630;6.570;2023-04-24T15:15:20;11.30;45.10
79711;DHT22;69465;51.630;6.570;2023-04-24T15:17:47;11.20;45.70
79711;DHT22;69465;51.630;6.570;2023-04-24T15:20:14;11.10;45.70
79711;DHT22;69465;51.630;6.570;2023-04-24T15:22:40;11.10;48.20
79711;DHT22;69465;51.630;6.570;2023-04-24T15:25:07;11.00;49.80
79711;DHT22;69465;51.630;6.570;2023-04-24T15:27:44;10.90;49.80
79711;DHT22;69465;51.630;6.570;2023-04-24T15:30:11;11.00;49.60
79711;DHT22;69465;51.630;6.570;2023-04-24T15:32:38;11.10;49.50
79711;DHT22;69465;51.630;6.570;2023-04-24T15:35:06;11.10;48.10
79711;DHT22;69465;51.630;6.570;2023-04-24T15:37:36;11.20;48.00
79711;DHT22;69465;51.630;6.570;2023-04-24T15:40:04;11.20;48.00
79711;DHT22;69465;51.630;6.570;2023-04-24T15:42:30;11.40;48.90
79711;DHT22;69465;51.630;6.570;2023-04-24T15:44:57;11.60;48.20
79711;DHT22;69465;51.630;6.570;2023-04-24T15:47:24;11.70;47.00
79711;DHT22;69465;51.630;6.570;2023-04-24T15:49:52;11.90;45.80